sensor_id;sensor_type;location;lat;lon;timestamp;P1;durP1;ratioP1;P2;durP2;ratioP2
10114;SDS011;5097;43.260;27.812;2023-05-16T00:01:02;9.23;;;7.20;;
10114;SDS011;5097;43.260;27.812;2023-05-16T00:03:48;10.13;;;7.87;;
10114;SDS011;5097;43.260;27.812;2023-05-16T00:06:33;15.57;;;7.13;;
10114;SDS011;5097;43.260;27.812;2023-05-16T00:09:17;12.13;;;6.70;;
10114;SDS011;5097;43.260;27.812;2023-05-16T00:12:01;13.07;;;6.60;;
10114;SDS011;5097;43.260;27.812;2023-05-16T00:14:46;9.17;;;6.73;;
10114;SDS011;5097;43.260;27.812;2023-05-16T00:17:30;12.20;;;6.53;;
10114;SDS011;5097;43.260;27.812;2023-05-16T00:20:15;8.40;;;6.70;;
10114;SDS011;5097;43.260;27.812;2023-05-16T00:23:00;8.47;;;7.03;;
10114;SDS011;5097;43.260;27.812;2023-05-16T00:25:44;9.47;;;6.93;;
10114;SDS011;5097;43.260;27.812;2023-05-16T00:28:28;7.97;;;5.50;;
10114;SDS011;5097;43.260;27.812;2023-05-16T00:31:12;7.90;;;6.47;;
10114;SDS011;5097;43.260;27.812;2023-05-16T00:33:56;8.03;;;6.27;;
10114;SDS011;5097;43.260;27.812;2023-05-16T00:36:42;10.17;;;6.40;;
10114;SDS011;5097;43.260;27.812;2023-05-16T00:39:26;8.17;;;6.10;;
10114;SDS011;5097;43.260;27.812;2023-05-16T00:42:11;7.50;;;6.37;;
10114;SDS011;5097;43.260;27.812;2023-05-16T00:44:54;8.50;;;6.20;;
10114;SDS011;5097;43.260;27.812;2023-05-16T00:47:38;7.20;;;6.10;;
10114;SDS011;5097;43.260;27.812;2023-05-16T00:50:22;7.47;;;5.87;;
10114;SDS011;5097;43.260;27.812;2023-05-16T00:53:08;7.60;;;6.07;;
10114;SDS011;5097;43.260;27.812;2023-05-16T00:55:53;7.10;;;6.40;;
10114;SDS011;5097;43.260;27.812;2023-05-16T00:58:38;6.80;;;6.13;;
10114;SDS011;5097;43.260;27.812;2023-05-16T01:01:24;6.43;;;5.77;;
10114;SDS011;5097;43.260;27.812;2023-05-16T01:04:08;6.53;;;5.93;;
10114;SDS011;5097;43.260;27.812;2023-05-16T01:06:53;10.03;;;6.47;;
10114;SDS011;5097;43.260;27.812;2023-05-16T01:09:39;7.13;;;6.20;;
10114;SDS011;5097;43.260;27.812;2023-05-16T01:12:26;9.87;;;6.43;;
10114;SDS011;5097;43.260;27.812;2023-05-16T01:15:19;7.70;;;5.87;;
10114;SDS011;5097;43.260;27.812;2023-05-16T01:18:07;13.13;;;6.20;;
10114;SDS011;5097;43.260;27.812;2023-05-16T01:21:00;6.73;;;6.00;;
10114;SDS011;5097;43.260;27.812;2023-05-16T01:23:50;6.17;;;5.57;;
10114;SDS011;5097;43.260;27.812;2023-05-16T01:26:40;7.97;;;6.13;;
10114;SDS011;5097;43.260;27.812;2023-05-16T01:29:25;7.73;;;5.90;;
10114;SDS011;5097;43.260;27.812;2023-05-16T01:32:09;7.40;;;6.20;;
10114;SDS011;5097;43.260;27.812;2023-05-16T01:34:53;8.63;;;5.73;;
10114;SDS011;5097;43.260;27.812;2023-05-16T01:37:38;7.10;;;5.50;;
10114;SDS011;5097;43.260;27.812;2023-05-16T01:40:29;6.40;;;5.90;;
10114;SDS011;5097;43.260;27.812;2023-05-16T01:43:24;8.10;;;6.10;;
10114;SDS011;5097;43.260;27.812;2023-05-16T01:46:14;7.13;;;6.33;;
10114;SDS011;5097;43.260;27.812;2023-05-16T01:49:02;6.87;;;5.80;;
10114;SDS011;5097;43.260;27.812;2023-05-16T01:51:59;6.10;;;5.60;;
10114;SDS011;5097;43.260;27.812;2023-05-16T01:54:44;8.10;;;6.97;;
10114;SDS011;5097;43.260;27.812;2023-05-16T01:57:35;7.90;;;6.33;;
10114;SDS011;5097;43.260;27.812;2023-05-16T02:00:22;6.73;;;6.10;;
10114;SDS011;5097;43.260;27.812;2023-05-16T02:03:06;7.47;;;6.77;;
10114;SDS011;5097;43.260;27.812;2023-05-16T02:05:50;9.77;;;7.23;;
10114;SDS011;5097;43.260;27.812;2023-05-16T02:08:34;7.67;;;6.97;;
10114;SDS011;5097;43.260;27.812;2023-05-16T02:11:18;8.20;;;7.40;;
10114;SDS011;5097;43.260;27.812;2023-05-16T02:14:02;9.20;;;7.27;;
10114;SDS011;5097;43.260;27.812;2023-05-16T02:16:48;7.87;;;6.40;;
10114;SDS011;5097;43.260;27.812;2023-05-16T02:19:32;8.13;;;6.43;;
10114;SDS011;5097;43.260;27.812;2023-05-16T02:22:16;11.10;;;8.03;;
10114;SDS011;5097;43.260;27.812;2023-05-16T02:25:00;6.80;;;6.20;;
10114;SDS011;5097;43.260;27.812;2023-05-16T02:27:45;8.93;;;7.73;;
10114;SDS011;5097;43.260;27.812;2023-05-16T02:30:30;9.30;;;7.43;;
10114;SDS011;5097;43.260;27.812;2023-05-16T02:33:15;8.93;;;7.43;;
10114;SDS011;5097;43.260;27.812;2023-05-16T02:36:00;8.47;;;7.30;;
10114;SDS011;5097;43.260;27.812;2023-05-16T02:38:44;9.03;;;7.30;;
10114;SDS011;5097;43.260;27.812;2023-05-16T02:41:28;8.53;;;6.70;;
10114;SDS011;5097;43.260;27.812;2023-05-16T02:44:12;7.50;;;6.73;;
10114;SDS011;5097;43.260;27.812;2023-05-16T02:46:57;7.13;;;6.43;;
10114;SDS011;5097;43.260;27.812;2023-05-16T02:49:42;6.93;;;6.00;;
10114;SDS011;5097;43.260;27.812;2023-05-16T02:52:26;6.77;;;5.53;;
10114;SDS011;5097;43.260;27.812;2023-05-16T02:55:10;8.43;;;7.00;;
10114;SDS011;5097;43.260;27.812;2023-05-16T02:58:03;7.40;;;6.47;;
10114;SDS011;5097;43.260;27.812;2023-05-16T03:00:47;7.40;;;6.77;;
10114;SDS011;5097;43.260;27.812;2023-05-16T03:03:31;6.77;;;5.73;;
10114;SDS011;5097;43.260;27.812;2023-05-16T03:06:18;8.47;;;6.03;;
10114;SDS011;5097;43.260;27.812;2023-05-16T03:09:01;6.23;;;5.53;;
10114;SDS011;5097;43.260;27.812;2023-05-16T03:11:45;6.87;;;5.90;;
10114;SDS011;5097;43.260;27.812;2023-05-16T03:14:29;7.67;;;6.40;;
10114;SDS011;5097;43.260;27.812;2023-05-16T03:17:13;8.23;;;6.13;;
10114;SDS011;5097;43.260;27.812;2023-05-16T03:19:57;9.27;;;6.90;;
10114;SDS011;5097;43.260;27.812;2023-05-16T03:22:45;7.70;;;6.90;;
10114;SDS011;5097;43.260;27.812;2023-05-16T03:25:29;7.03;;;6.33;;
10114;SDS011;5097;43.260;27.812;2023-05-16T03:28:13;8.97;;;6.73;;
10114;SDS011;5097;43.260;27.812;2023-05-16T03:30:59;7.87;;;6.83;;
10114;SDS011;5097;43.260;27.812;2023-05-16T03:33:43;7.87;;;6.50;;
10114;SDS011;5097;43.260;27.812;2023-05-16T03:36:27;8.23;;;6.87;;
10114;SDS011;5097;43.260;27.812;2023-05-16T03:39:12;8.33;;;7.33;;
10114;SDS011;5097;43.260;27.812;2023-05-16T03:41:56;8.83;;;6.43;;
10114;SDS011;5097;43.260;27.812;2023-05-16T03:44:40;8.93;;;6.30;;
10114;SDS011;5097;43.260;27.812;2023-05-16T03:47:24;7.83;;;6.10;;
10114;SDS011;5097;43.260;27.812;2023-05-16T03:50:11;8.52;;;6.57;;
10114;SDS011;5097;43.260;27.812;2023-05-16T03:52:55;8.90;;;7.20;;
10114;SDS011;5097;43.260;27.812;2023-05-16T03:55:40;12.90;;;6.83;;
10114;SDS011;5097;43.260;27.812;2023-05-16T03:58:25;6.72;;;6.13;;
10114;SDS011;5097;43.260;27.812;2023-05-16T04:01:09;7.27;;;6.43;;
10114;SDS011;5097;43.260;27.812;2023-05-16T04:03:53;8.10;;;6.57;;
10114;SDS011;5097;43.260;27.812;2023-05-16T04:06:37;6.95;;;6.05;;
10114;SDS011;5097;43.260;27.812;2023-05-16T04:09:20;7.77;;;5.67;;
10114;SDS011;5097;43.260;27.812;2023-05-16T04:12:06;8.48;;;7.70;;
10114;SDS011;5097;43.260;27.812;2023-05-16T04:14:50;11.53;;;7.43;;
10114;SDS011;5097;43.260;27.812;2023-05-16T04:17:34;8.63;;;7.20;;
10114;SDS011;5097;43.260;27.812;2023-05-16T04:20:18;10.07;;;7.43;;
10114;SDS011;5097;43.260;27.812;2023-05-16T04:23:02;11.27;;;7.40;;
10114;SDS011;5097;43.260;27.812;2023-05-16T04:25:46;9.38;;;6.97;;
10114;SDS011;5097;43.260;27.812;2023-05-16T04:28:33;9.57;;;7.97;;
10114;SDS011;5097;43.260;27.812;2023-05-16T04:31:17;7.00;;;5.97;;
10114;SDS011;5097;43.260;27.812;2023-05-16T04:34:01;8.80;;;7.32;;
10114;SDS011;5097;43.260;27.812;2023-05-16T04:36:44;8.05;;;5.70;;
10114;SDS011;5097;43.260;27.812;2023-05-16T04:39:28;6.40;;;5.75;;
10114;SDS011;5097;43.260;27.812;2023-05-16T04:42:12;10.25;;;7.07;;
10114;SDS011;5097;43.260;27.812;2023-05-16T04:44:57;13.05;;;7.00;;
10114;SDS011;5097;43.260;27.812;2023-05-16T04:47:41;9.30;;;7.63;;
10114;SDS011;5097;43.260;27.812;2023-05-16T04:50:25;10.55;;;7.65;;
10114;SDS011;5097;43.260;27.812;2023-05-16T04:53:09;11.88;;;9.02;;
10114;SDS011;5097;43.260;27.812;2023-05-16T04:55:53;8.60;;;6.60;;
10114;SDS011;5097;43.260;27.812;2023-05-16T04:58:37;8.60;;;6.35;;
10114;SDS011;5097;43.260;27.812;2023-05-16T05:01:25;7.50;;;6.50;;
10114;SDS011;5097;43.260;27.812;2023-05-16T05:04:09;5.60;;;4.47;;
10114;SDS011;5097;43.260;27.812;2023-05-16T05:06:53;5.78;;;5.20;;
10114;SDS011;5097;43.260;27.812;2023-05-16T05:09:37;5.80;;;4.53;;
10114;SDS011;5097;43.260;27.812;2023-05-16T05:12:21;8.38;;;5.43;;
10114;SDS011;5097;43.260;27.812;2023-05-16T05:15:07;7.28;;;5.30;;
10114;SDS011;5097;43.260;27.812;2023-05-16T05:17:52;7.35;;;5.15;;
10114;SDS011;5097;43.260;27.812;2023-05-16T05:20:37;11.07;;;6.00;;
10114;SDS011;5097;43.260;27.812;2023-05-16T05:23:21;10.77;;;5.38;;
10114;SDS011;5097;43.260;27.812;2023-05-16T05:26:04;6.03;;;4.82;;
10114;SDS011;5097;43.260;27.812;2023-05-16T05:28:48;16.40;;;5.47;;
10114;SDS011;5097;43.260;27.812;2023-05-16T05:31:46;7.75;;;5.82;;
10114;SDS011;5097;43.260;27.812;2023-05-16T05:34:31;11.05;;;5.97;;
10114;SDS011;5097;43.260;27.812;2023-05-16T05:37:15;18.55;;;5.95;;
10114;SDS011;5097;43.260;27.812;2023-05-16T05:39:59;10.60;;;6.45;;
10114;SDS011;5097;43.260;27.812;2023-05-16T05:42:46;9.55;;;6.90;;
10114;SDS011;5097;43.260;27.812;2023-05-16T05:45:30;9.70;;;6.88;;
10114;SDS011;5097;43.260;27.812;2023-05-16T05:48:14;12.27;;;7.18;;
10114;SDS011;5097;43.260;27.812;2023-05-16T05:50:59;13.07;;;6.80;;
10114;SDS011;5097;43.260;27.812;2023-05-16T05:53:43;16.35;;;7.40;;
10114;SDS011;5097;43.260;27.812;2023-05-16T05:56:27;14.15;;;7.22;;
10114;SDS011;5097;43.260;27.812;2023-05-16T05:59:11;15.18;;;6.97;;
10114;SDS011;5097;43.260;27.812;2023-05-16T06:01:55;13.05;;;7.28;;
10114;SDS011;5097;43.260;27.812;2023-05-16T06:04:40;6.75;;;4.93;;
10114;SDS011;5097;43.260;27.812;2023-05-16T06:07:25;15.50;;;6.80;;
10114;SDS011;5097;43.260;27.812;2023-05-16T06:10:09;11.70;;;6.13;;
10114;SDS011;5097;43.260;27.812;2023-05-16T06:12:53;12.15;;;5.63;;
10114;SDS011;5097;43.260;27.812;2023-05-16T06:15:37;10.23;;;5.35;;
10114;SDS011;5097;43.260;27.812;2023-05-16T06:18:21;4.93;;;3.80;;
10114;SDS011;5097;43.260;27.812;2023-05-16T06:21:05;4.70;;;3.65;;
10114;SDS011;5097;43.260;27.812;2023-05-16T06:23:51;7.35;;;4.07;;
10114;SDS011;5097;43.260;27.812;2023-05-16T06:26:35;4.97;;;4.07;;
10114;SDS011;5097;43.260;27.812;2023-05-16T06:29:19;4.75;;;3.40;;
10114;SDS011;5097;43.260;27.812;2023-05-16T06:32:04;5.18;;;3.47;;
10114;SDS011;5097;43.260;27.812;2023-05-16T06:34:48;9.88;;;4.25;;
10114;SDS011;5097;43.260;27.812;2023-05-16T06:37:33;6.97;;;3.90;;
10114;SDS011;5097;43.260;27.812;2023-05-16T06:40:18;5.85;;;3.67;;
10114;SDS011;5097;43.260;27.812;2023-05-16T06:43:02;14.10;;;5.63;;
10114;SDS011;5097;43.260;27.812;2023-05-16T06:45:46;12.52;;;5.13;;
10114;SDS011;5097;43.260;27.812;2023-05-16T06:48:30;7.97;;;3.92;;
10114;SDS011;5097;43.260;27.812;2023-05-16T06:51:14;8.23;;;3.78;;
10114;SDS011;5097;43.260;27.812;2023-05-16T06:53:58;6.50;;;3.60;;
10114;SDS011;5097;43.260;27.812;2023-05-16T06:56:46;4.97;;;3.17;;
10114;SDS011;5097;43.260;27.812;2023-05-16T06:59:30;6.95;;;4.00;;
10114;SDS011;5097;43.260;27.812;2023-05-16T07:02:14;4.03;;;3.13;;
10114;SDS011;5097;43.260;27.812;2023-05-16T07:04:58;10.30;;;4.95;;
10114;SDS011;5097;43.260;27.812;2023-05-16T07:07:44;12.52;;;5.40;;
10114;SDS011;5097;43.260;27.812;2023-05-16T07:10:28;8.55;;;4.55;;
10114;SDS011;5097;43.260;27.812;2023-05-16T07:13:14;10.20;;;5.20;;
10114;SDS011;5097;43.260;27.812;2023-05-16T07:15:58;8.13;;;5.05;;
10114;SDS011;5097;43.260;27.812;2023-05-16T07:18:42;13.25;;;5.63;;
10114;SDS011;5097;43.260;27.812;2023-05-16T07:21:26;8.80;;;4.55;;
10114;SDS011;5097;43.260;27.812;2023-05-16T07:24:10;7.50;;;5.20;;
10114;SDS011;5097;43.260;27.812;2023-05-16T07:26:54;11.57;;;5.47;;
10114;SDS011;5097;43.260;27.812;2023-05-16T07:29:39;17.75;;;5.72;;
10114;SDS011;5097;43.260;27.812;2023-05-16T07:32:23;17.08;;;5.72;;
10114;SDS011;5097;43.260;27.812;2023-05-16T07:35:08;8.75;;;5.03;;
10114;SDS011;5097;43.260;27.812;2023-05-16T07:37:52;12.25;;;5.28;;
10114;SDS011;5097;43.260;27.812;2023-05-16T07:40:36;9.35;;;4.72;;
10114;SDS011;5097;43.260;27.812;2023-05-16T07:43:20;7.05;;;5.00;;
10114;SDS011;5097;43.260;27.812;2023-05-16T07:46:05;9.45;;;5.13;;
10114;SDS011;5097;43.260;27.812;2023-05-16T07:48:50;13.00;;;5.95;;
10114;SDS011;5097;43.260;27.812;2023-05-16T07:51:33;7.00;;;4.85;;
10114;SDS011;5097;43.260;27.812;2023-05-16T07:54:17;11.50;;;5.63;;
10114;SDS011;5097;43.260;27.812;2023-05-16T07:57:02;11.60;;;5.47;;
10114;SDS011;5097;43.260;27.812;2023-05-16T07:59:46;8.85;;;5.28;;
10114;SDS011;5097;43.260;27.812;2023-05-16T08:02:31;8.82;;;4.78;;
10114;SDS011;5097;43.260;27.812;2023-05-16T08:05:15;9.63;;;4.93;;
10114;SDS011;5097;43.260;27.812;2023-05-16T08:08:00;11.13;;;4.80;;
10114;SDS011;5097;43.260;27.812;2023-05-16T08:10:44;9.13;;;5.68;;
10114;SDS011;5097;43.260;27.812;2023-05-16T08:13:28;10.10;;;5.25;;
10114;SDS011;5097;43.260;27.812;2023-05-16T08:16:12;10.77;;;4.82;;
10114;SDS011;5097;43.260;27.812;2023-05-16T08:18:58;9.98;;;5.25;;
10114;SDS011;5097;43.260;27.812;2023-05-16T08:21:42;9.95;;;4.97;;
10114;SDS011;5097;43.260;27.812;2023-05-16T08:24:26;7.07;;;4.30;;
10114;SDS011;5097;43.260;27.812;2023-05-16T08:27:10;12.73;;;5.63;;
10114;SDS011;5097;43.260;27.812;2023-05-16T08:29:54;11.63;;;4.63;;
10114;SDS011;5097;43.260;27.812;2023-05-16T08:32:38;12.63;;;4.90;;
10114;SDS011;5097;43.260;27.812;2023-05-16T08:35:23;11.65;;;5.00;;
10114;SDS011;5097;43.260;27.812;2023-05-16T08:38:08;8.88;;;4.85;;
10114;SDS011;5097;43.260;27.812;2023-05-16T08:40:52;7.97;;;4.53;;
10114;SDS011;5097;43.260;27.812;2023-05-16T08:43:36;7.95;;;4.75;;
10114;SDS011;5097;43.260;27.812;2023-05-16T08:46:20;10.35;;;4.50;;
10114;SDS011;5097;43.260;27.812;2023-05-16T08:49:05;6.72;;;4.78;;
10114;SDS011;5097;43.260;27.812;2023-05-16T08:51:54;11.65;;;5.35;;
10114;SDS011;5097;43.260;27.812;2023-05-16T08:54:43;10.85;;;5.05;;
10114;SDS011;5097;43.260;27.812;2023-05-16T08:57:39;9.90;;;5.13;;
10114;SDS011;5097;43.260;27.812;2023-05-16T09:00:24;9.80;;;5.25;;
10114;SDS011;5097;43.260;27.812;2023-05-16T09:03:09;9.48;;;4.90;;
10114;SDS011;5097;43.260;27.812;2023-05-16T09:05:53;8.30;;;4.47;;
10114;SDS011;5097;43.260;27.812;2023-05-16T09:08:39;11.68;;;5.28;;
10114;SDS011;5097;43.260;27.812;2023-05-16T09:11:24;10.40;;;4.60;;
10114;SDS011;5097;43.260;27.812;2023-05-16T09:14:08;7.53;;;4.30;;
10114;SDS011;5097;43.260;27.812;2023-05-16T09:17:01;6.32;;;4.45;;
10114;SDS011;5097;43.260;27.812;2023-05-16T09:19:47;9.07;;;4.88;;
10114;SDS011;5097;43.260;27.812;2023-05-16T09:22:33;6.72;;;4.70;;
10114;SDS011;5097;43.260;27.812;2023-05-16T09:25:19;8.05;;;4.65;;
10114;SDS011;5097;43.260;27.812;2023-05-16T09:28:09;9.73;;;5.18;;
10114;SDS011;5097;43.260;27.812;2023-05-16T09:30:53;11.95;;;4.75;;
10114;SDS011;5097;43.260;27.812;2023-05-16T09:33:40;10.27;;;5.28;;
10114;SDS011;5097;43.260;27.812;2023-05-16T09:36:24;7.85;;;4.57;;
10114;SDS011;5097;43.260;27.812;2023-05-16T09:39:08;7.30;;;4.80;;
10114;SDS011;5097;43.260;27.812;2023-05-16T09:41:54;10.40;;;4.60;;
10114;SDS011;5097;43.260;27.812;2023-05-16T09:44:41;7.85;;;4.30;;
10114;SDS011;5097;43.260;27.812;2023-05-16T09:47:28;9.05;;;4.43;;
10114;SDS011;5097;43.260;27.812;2023-05-16T09:50:12;7.53;;;4.13;;
10114;SDS011;5097;43.260;27.812;2023-05-16T09:52:58;10.70;;;4.43;;
10114;SDS011;5097;43.260;27.812;2023-05-16T09:55:42;10.88;;;4.65;;
10114;SDS011;5097;43.260;27.812;2023-05-16T09:58:29;10.23;;;4.68;;
10114;SDS011;5097;43.260;27.812;2023-05-16T10:01:14;10.10;;;4.50;;
10114;SDS011;5097;43.260;27.812;2023-05-16T10:04:01;13.90;;;4.97;;
10114;SDS011;5097;43.260;27.812;2023-05-16T10:06:45;18.73;;;5.18;;
10114;SDS011;5097;43.260;27.812;2023-05-16T10:09:33;7.68;;;4.47;;
10114;SDS011;5097;43.260;27.812;2023-05-16T10:12:18;12.35;;;4.78;;
10114;SDS011;5097;43.260;27.812;2023-05-16T10:15:05;12.30;;;5.03;;
10114;SDS011;5097;43.260;27.812;2023-05-16T10:17:50;8.52;;;5.05;;
10114;SDS011;5097;43.260;27.812;2023-05-16T10:20:39;12.13;;;5.35;;
10114;SDS011;5097;43.260;27.812;2023-05-16T10:23:24;14.88;;;5.32;;
10114;SDS011;5097;43.260;27.812;2023-05-16T10:26:09;8.52;;;5.05;;
10114;SDS011;5097;43.260;27.812;2023-05-16T10:28:55;9.93;;;4.57;;
10114;SDS011;5097;43.260;27.812;2023-05-16T10:31:42;12.02;;;5.30;;
10114;SDS011;5097;43.260;27.812;2023-05-16T10:34:27;11.57;;;5.15;;
10114;SDS011;5097;43.260;27.812;2023-05-16T10:37:11;10.23;;;5.07;;
10114;SDS011;5097;43.260;27.812;2023-05-16T10:39:55;12.20;;;4.93;;
10114;SDS011;5097;43.260;27.812;2023-05-16T10:42:42;9.10;;;4.68;;
10114;SDS011;5097;43.260;27.812;2023-05-16T10:45:27;5.78;;;4.30;;
10114;SDS011;5097;43.260;27.812;2023-05-16T10:48:14;9.45;;;4.70;;
10114;SDS011;5097;43.260;27.812;2023-05-16T10:50:58;13.73;;;5.22;;
10114;SDS011;5097;43.260;27.812;2023-05-16T10:53:43;8.65;;;4.22;;
10114;SDS011;5097;43.260;27.812;2023-05-16T10:56:27;9.52;;;4.53;;
10114;SDS011;5097;43.260;27.812;2023-05-16T10:59:21;6.45;;;4.53;;
10114;SDS011;5097;43.260;27.812;2023-05-16T11:02:20;10.23;;;4.85;;
10114;SDS011;5097;43.260;27.812;2023-05-16T11:05:08;9.55;;;4.30;;
10114;SDS011;5097;43.260;27.812;2023-05-16T11:08:01;6.60;;;3.97;;
10114;SDS011;5097;43.260;27.812;2023-05-16T11:10:47;14.07;;;4.72;;
10114;SDS011;5097;43.260;27.812;2023-05-16T11:13:31;13.35;;;4.68;;
10114;SDS011;5097;43.260;27.812;2023-05-16T11:16:28;9.40;;;4.07;;
10114;SDS011;5097;43.260;27.812;2023-05-16T11:19:12;11.13;;;4.80;;
10114;SDS011;5097;43.260;27.812;2023-05-16T11:25:07;7.60;;;4.20;;
10114;SDS011;5097;43.260;27.812;2023-05-16T11:27:52;10.15;;;4.25;;
10114;SDS011;5097;43.260;27.812;2023-05-16T11:30:42;7.82;;;5.00;;
10114;SDS011;5097;43.260;27.812;2023-05-16T11:33:29;7.85;;;4.28;;
10114;SDS011;5097;43.260;27.812;2023-05-16T11:36:16;13.35;;;4.78;;
10114;SDS011;5097;43.260;27.812;2023-05-16T11:39:06;10.00;;;5.07;;
10114;SDS011;5097;43.260;27.812;2023-05-16T11:41:52;16.17;;;5.45;;
10114;SDS011;5097;43.260;27.812;2023-05-16T11:44:36;5.82;;;4.03;;
10114;SDS011;5097;43.260;27.812;2023-05-16T11:47:20;10.88;;;5.07;;
10114;SDS011;5097;43.260;27.812;2023-05-16T11:50:05;13.07;;;5.28;;
10114;SDS011;5097;43.260;27.812;2023-05-16T11:52:51;11.15;;;5.18;;
10114;SDS011;5097;43.260;27.812;2023-05-16T11:55:40;11.18;;;4.78;;
10114;SDS011;5097;43.260;27.812;2023-05-16T11:58:25;12.88;;;4.78;;
10114;SDS011;5097;43.260;27.812;2023-05-16T12:01:10;12.77;;;4.50;;
10114;SDS011;5097;43.260;27.812;2023-05-16T12:03:54;11.40;;;4.60;;
10114;SDS011;5097;43.260;27.812;2023-05-16T12:06:39;7.07;;;3.97;;
10114;SDS011;5097;43.260;27.812;2023-05-16T12:09:25;8.32;;;3.75;;
10114;SDS011;5097;43.260;27.812;2023-05-16T12:12:11;9.23;;;4.05;;
10114;SDS011;5097;43.260;27.812;2023-05-16T12:14:55;5.93;;;3.58;;
10114;SDS011;5097;43.260;27.812;2023-05-16T12:17:41;4.65;;;3.70;;
10114;SDS011;5097;43.260;27.812;2023-05-16T12:20:26;7.97;;;4.00;;
10114;SDS011;5097;43.260;27.812;2023-05-16T12:23:10;11.05;;;4.63;;
10114;SDS011;5097;43.260;27.812;2023-05-16T12:25:54;6.57;;;4.35;;
10114;SDS011;5097;43.260;27.812;2023-05-16T12:28:41;8.43;;;4.22;;
10114;SDS011;5097;43.260;27.812;2023-05-16T12:31:26;9.07;;;4.57;;
10114;SDS011;5097;43.260;27.812;2023-05-16T12:34:14;7.35;;;4.18;;
10114;SDS011;5097;43.260;27.812;2023-05-16T12:37:01;7.40;;;5.07;;
10114;SDS011;5097;43.260;27.812;2023-05-16T12:39:48;8.85;;;4.70;;
10114;SDS011;5097;43.260;27.812;2023-05-16T12:42:32;8.23;;;4.63;;
10114;SDS011;5097;43.260;27.812;2023-05-16T12:45:18;10.65;;;4.45;;
10114;SDS011;5097;43.260;27.812;2023-05-16T12:48:07;11.75;;;4.47;;
10114;SDS011;5097;43.260;27.812;2023-05-16T12:50:54;9.25;;;5.35;;
10114;SDS011;5097;43.260;27.812;2023-05-16T12:53:42;9.27;;;4.38;;
10114;SDS011;5097;43.260;27.812;2023-05-16T12:56:43;10.32;;;4.97;;
10114;SDS011;5097;43.260;27.812;2023-05-16T12:59:29;16.55;;;4.82;;
10114;SDS011;5097;43.260;27.812;2023-05-16T13:02:15;14.43;;;5.18;;
10114;SDS011;5097;43.260;27.812;2023-05-16T13:05:00;12.85;;;4.88;;
10114;SDS011;5097;43.260;27.812;2023-05-16T13:07:44;11.90;;;5.30;;
10114;SDS011;5097;43.260;27.812;2023-05-16T13:10:28;16.30;;;5.82;;
10114;SDS011;5097;43.260;27.812;2023-05-16T13:13:12;19.92;;;6.13;;
10114;SDS011;5097;43.260;27.812;2023-05-16T13:16:16;16.65;;;6.13;;
10114;SDS011;5097;43.260;27.812;2023-05-16T13:19:01;12.13;;;5.35;;
10114;SDS011;5097;43.260;27.812;2023-05-16T13:21:46;8.25;;;4.18;;
10114;SDS011;5097;43.260;27.812;2023-05-16T13:24:30;8.90;;;4.20;;
10114;SDS011;5097;43.260;27.812;2023-05-16T13:27:15;12.50;;;4.38;;
10114;SDS011;5097;43.260;27.812;2023-05-16T13:29:59;10.13;;;3.85;;
10114;SDS011;5097;43.260;27.812;2023-05-16T13:32:51;4.65;;;3.90;;
10114;SDS011;5097;43.260;27.812;2023-05-16T13:35:36;15.40;;;4.88;;
10114;SDS011;5097;43.260;27.812;2023-05-16T13:38:20;13.02;;;4.85;;
10114;SDS011;5097;43.260;27.812;2023-05-16T13:41:04;9.63;;;4.30;;
10114;SDS011;5097;43.260;27.812;2023-05-16T13:43:48;17.30;;;4.70;;
10114;SDS011;5097;43.260;27.812;2023-05-16T13:46:32;12.50;;;5.10;;
10114;SDS011;5097;43.260;27.812;2023-05-16T13:49:17;10.38;;;5.13;;
10114;SDS011;5097;43.260;27.812;2023-05-16T13:52:02;14.70;;;5.53;;
10114;SDS011;5097;43.260;27.812;2023-05-16T13:54:46;11.98;;;5.13;;
10114;SDS011;5097;43.260;27.812;2023-05-16T13:57:30;8.48;;;4.78;;
10114;SDS011;5097;43.260;27.812;2023-05-16T14:00:15;13.13;;;4.90;;
10114;SDS011;5097;43.260;27.812;2023-05-16T14:03:20;13.07;;;5.47;;
10114;SDS011;5097;43.260;27.812;2023-05-16T14:06:05;8.52;;;5.78;;
10114;SDS011;5097;43.260;27.812;2023-05-16T14:08:51;12.32;;;4.82;;
10114;SDS011;5097;43.260;27.812;2023-05-16T14:11:35;14.05;;;4.50;;
10114;SDS011;5097;43.260;27.812;2023-05-16T14:14:19;16.60;;;5.53;;
10114;SDS011;5097;43.260;27.812;2023-05-16T14:17:03;14.93;;;5.75;;
10114;SDS011;5097;43.260;27.812;2023-05-16T14:19:48;11.95;;;5.00;;
10114;SDS011;5097;43.260;27.812;2023-05-16T14:22:32;12.75;;;5.10;;
10114;SDS011;5097;43.260;27.812;2023-05-16T14:25:17;10.77;;;5.40;;
10114;SDS011;5097;43.260;27.812;2023-05-16T14:28:01;14.00;;;5.15;;
10114;SDS011;5097;43.260;27.812;2023-05-16T14:30:46;12.88;;;6.13;;
10114;SDS011;5097;43.260;27.812;2023-05-16T14:33:30;10.88;;;5.60;;
10114;SDS011;5097;43.260;27.812;2023-05-16T14:36:14;16.05;;;5.60;;
10114;SDS011;5097;43.260;27.812;2023-05-16T14:38:58;13.48;;;5.70;;
10114;SDS011;5097;43.260;27.812;2023-05-16T14:41:44;10.68;;;5.88;;
10114;SDS011;5097;43.260;27.812;2023-05-16T14:44:28;11.82;;;5.55;;
10114;SDS011;5097;43.260;27.812;2023-05-16T14:47:12;16.83;;;5.57;;
10114;SDS011;5097;43.260;27.812;2023-05-16T14:49:56;11.13;;;5.22;;
10114;SDS011;5097;43.260;27.812;2023-05-16T14:52:41;10.70;;;6.07;;
10114;SDS011;5097;43.260;27.812;2023-05-16T14:55:26;16.40;;;5.93;;
10114;SDS011;5097;43.260;27.812;2023-05-16T14:58:11;13.30;;;5.90;;
10114;SDS011;5097;43.260;27.812;2023-05-16T15:00:56;10.23;;;5.05;;
10114;SDS011;5097;43.260;27.812;2023-05-16T15:03:40;13.15;;;6.53;;
10114;SDS011;5097;43.260;27.812;2023-05-16T15:06:37;13.40;;;5.63;;
10114;SDS011;5097;43.260;27.812;2023-05-16T15:09:21;18.45;;;6.00;;
10114;SDS011;5097;43.260;27.812;2023-05-16T15:12:05;10.10;;;5.60;;
10114;SDS011;5097;43.260;27.812;2023-05-16T15:14:51;12.65;;;5.72;;
10114;SDS011;5097;43.260;27.812;2023-05-16T15:17:35;11.77;;;6.00;;
10114;SDS011;5097;43.260;27.812;2023-05-16T15:20:19;12.18;;;6.50;;
10114;SDS011;5097;43.260;27.812;2023-05-16T15:23:03;16.50;;;6.75;;
10114;SDS011;5097;43.260;27.812;2023-05-16T15:25:49;14.38;;;6.22;;
10114;SDS011;5097;43.260;27.812;2023-05-16T15:28:33;16.90;;;6.50;;
10114;SDS011;5097;43.260;27.812;2023-05-16T15:31:19;15.68;;;6.45;;
10114;SDS011;5097;43.260;27.812;2023-05-16T15:34:03;11.68;;;6.63;;
10114;SDS011;5097;43.260;27.812;2023-05-16T15:36:49;16.83;;;6.50;;
10114;SDS011;5097;43.260;27.812;2023-05-16T15:39:33;12.35;;;6.20;;
10114;SDS011;5097;43.260;27.812;2023-05-16T15:42:18;12.02;;;6.80;;
10114;SDS011;5097;43.260;27.812;2023-05-16T15:45:03;11.90;;;6.97;;
10114;SDS011;5097;43.260;27.812;2023-05-16T15:47:49;14.50;;;7.03;;
10114;SDS011;5097;43.260;27.812;2023-05-16T15:50:33;18.35;;;6.20;;
10114;SDS011;5097;43.260;27.812;2023-05-16T15:53:17;16.10;;;6.70;;
10114;SDS011;5097;43.260;27.812;2023-05-16T15:56:01;16.20;;;6.85;;
10114;SDS011;5097;43.260;27.812;2023-05-16T15:58:45;18.48;;;6.65;;
10114;SDS011;5097;43.260;27.812;2023-05-16T16:01:29;13.05;;;6.07;;
10114;SDS011;5097;43.260;27.812;2023-05-16T16:04:16;16.70;;;7.00;;
10114;SDS011;5097;43.260;27.812;2023-05-16T16:07:04;12.65;;;6.38;;
10114;SDS011;5097;43.260;27.812;2023-05-16T16:09:48;6.20;;;4.00;;
10114;SDS011;5097;43.260;27.812;2023-05-16T16:12:32;9.00;;;4.32;;
10114;SDS011;5097;43.260;27.812;2023-05-16T16:15:18;7.30;;;4.47;;
10114;SDS011;5097;43.260;27.812;2023-05-16T16:18:02;5.78;;;3.90;;
10114;SDS011;5097;43.260;27.812;2023-05-16T16:20:49;6.68;;;4.50;;
10114;SDS011;5097;43.260;27.812;2023-05-16T16:23:34;8.68;;;4.85;;
10114;SDS011;5097;43.260;27.812;2023-05-16T16:26:18;6.57;;;4.32;;
10114;SDS011;5097;43.260;27.812;2023-05-16T16:29:02;8.15;;;4.60;;
10114;SDS011;5097;43.260;27.812;2023-05-16T16:31:47;7.15;;;4.55;;